Time;durP1;ratioP1;P1;durP2;ratioP2;P2;SDS_P1;SDS_P2;PMS_P1;PMS_P2;Temp;Humidity;BMP_temperature;BMP_pressure;BME280_temperature;BME280_humidity;BME280_pressure;Samples;Min_cycle;Max_cycle;Signal;HPM_P1;HPM_P2
2023/10/24 00:00:16;;;;;;;2.83;1.27;;;11.80;99.90;;;;;;5117941;28;20487;-80
2023/10/24 00:02:41;;;;;;;1.60;1.10;;;11.80;99.90;;;;;;5114905;28;20392;-79
2023/10/24 00:05:07;;;;;;;1.95;1.40;;;11.80;99.90;;;;;;5117393;28;20072;-80
2023/10/24 00:07:34;;;;;;;2.10;1.50;;;11.80;99.90;;;;;;5117026;28;20617;-80
2023/10/24 00:10:01;;;;;;;2.35;1.35;;;11.80;99.90;;;;;;5117853;28;20031;-80
2023/10/24 00:12:27;;;;;;;2.25;1.02;;;11.70;99.90;;;;;;5099427;28;20047;-81
2023/10/24 00:14:55;;;;;;;1.70;1.15;;;11.80;99.90;;;;;;5117576;28;20043;-79
2023/10/24 00:17:20;;;;;;;1.45;1.00;;;11.70;99.90;;;;;;5117598;28;20387;-78
2023/10/24 00:19:46;;;;;;;1.42;1.20;;;11.70;99.90;;;;;;5117523;28;20024;-81
2023/10/24 00:22:12;;;;;;;1.48;1.00;;;11.70;99.90;;;;;;5117629;28;20023;-78
2023/10/24 00:24:37;;;;;;;2.28;1.30;;;11.60;99.90;;;;;;5117559;28;20081;-79
2023/10/24 00:27:03;;;;;;;1.67;1.05;;;11.60;99.90;;;;;;5117531;28;20395;-79
2023/10/24 00:29:28;;;;;;;1.73;1.25;;;11.60;99.90;;;;;;5117608;28;20028;-78
2023/10/24 00:31:54;;;;;;;2.15;1.00;;;11.70;99.90;;;;;;5117569;28;20508;-78
2023/10/24 00:34:20;;;;;;;1.52;1.05;;;11.70;99.90;;;;;;5117431;28;20099;-78
2023/10/24 00:36:46;;;;;;;3.15;1.40;;;11.70;99.90;;;;;;5117360;28;20019;-78
2023/10/24 00:39:12;;;;;;;2.03;1.17;;;11.70;99.90;;;;;;5117590;28;20023;-78
2023/10/24 00:41:38;;;;;;;2.33;1.27;;;11.70;99.90;;;;;;5110287;28;20521;-78
2023/10/24 00:44:06;;;;;;;3.33;1.20;;;11.60;99.90;;;;;;5117325;28;20024;-78
2023/10/24 00:46:32;;;;;;;1.80;1.17;;;11.60;99.90;;;;;;5117239;28;20439;-78
2023/10/24 00:48:58;;;;;;;1.85;1.08;;;11.60;99.90;;;;;;5117457;28;20076;-78
2023/10/24 00:51:24;;;;;;;1.20;1.00;;;11.50;99.90;;;;;;5127440;28;20475;-78
2023/10/24 00:53:50;;;;;;;2.03;1.20;;;11.50;99.90;;;;;;5099127;28;20111;-78
2023/10/24 00:56:15;;;;;;;1.70;1.10;;;11.50;99.90;;;;;;5117318;28;20127;-79
2023/10/24 00:58:42;;;;;;;2.75;1.20;;;11.40;99.90;;;;;;5099167;28;20024;-79
2023/10/24 01:01:12;;;;;;;3.22;0.90;;;11.40;99.90;;;;;;5095625;28;20050;-78
2023/10/24 01:03:38;;;;;;;1.92;1.00;;;11.40;99.90;;;;;;5097015;28;20024;-78
2023/10/24 01:06:05;;;;;;;2.35;1.00;;;11.30;99.90;;;;;;5097049;28;20547;-78
2023/10/24 01:08:31;;;;;;;1.27;1.00;;;11.30;99.90;;;;;;5095620;28;20070;-78
2023/10/24 01:10:57;;;;;;;2.00;1.20;;;11.30;99.90;;;;;;5096595;28;20024;-79
2023/10/24 01:13:23;;;;;;;2.00;0.98;;;11.20;99.90;;;;;;5096982;28;20035;-77
2023/10/24 01:15:49;;;;;;;2.85;0.88;;;11.20;99.90;;;;;;5096783;28;20017;-77
2023/10/24 01:18:14;;;;;;;1.58;0.95;;;11.10;99.90;;;;;;5096756;28;20032;-77
2023/10/24 01:20:40;;;;;;;2.10;0.80;;;11.10;99.90;;;;;;5100325;28;20028;-79
2023/10/24 01:23:10;;;;;;;3.90;1.00;;;11.10;99.90;;;;;;5099351;28;20024;-79
2023/10/24 01:25:40;;;;;;;1.60;0.90;;;11.10;99.90;;;;;;5100462;28;20446;-78
2023/10/24 01:28:07;;;;;;;1.90;0.90;;;11.00;99.90;;;;;;5100650;28;20025;-78
2023/10/24 01:30:35;;;;;;;2.20;1.10;;;11.00;99.90;;;;;;5099165;28;20046;-78
2023/10/24 01:33:01;;;;;;;2.40;0.77;;;11.00;99.90;;;;;;5100228;28;20025;-78
2023/10/24 01:35:26;;;;;;;1.52;0.93;;;11.00;99.90;;;;;;5098977;28;20506;-79
2023/10/24 01:37:52;;;;;;;1.27;0.77;;;11.00;99.90;;;;;;5099112;28;20454;-78
2023/10/24 01:40:18;;;;;;;1.88;0.88;;;11.00;99.90;;;;;;5098766;28;20027;-78
2023/10/24 01:42:43;;;;;;;2.47;1.00;;;11.00;99.90;;;;;;5081665;28;20035;-77
2023/10/24 01:45:09;;;;;;;1.70;1.02;;;11.10;99.90;;;;;;5097163;28;20111;-76
2023/10/24 01:47:35;;;;;;;2.70;0.80;;;11.00;99.90;;;;;;5100108;28;20024;-79
2023/10/24 01:50:02;;;;;;;2.20;0.90;;;11.00;99.90;;;;;;5099772;28;20024;-79
2023/10/24 01:52:28;;;;;;;2.90;1.00;;;11.00;99.90;;;;;;5100005;28;20473;-80
2023/10/24 01:54:54;;;;;;;2.53;0.85;;;11.10;99.90;;;;;;5098602;28;20090;-77
2023/10/24 01:57:19;;;;;;;1.60;1.00;;;11.10;99.90;;;;;;5099919;28;20024;-77
2023/10/24 01:59:45;;;;;;;1.60;1.10;;;11.10;99.90;;;;;;5099762;28;20036;-78
2023/10/24 02:02:11;;;;;;;2.30;1.00;;;11.00;99.90;;;;;;5120264;28;20058;-78
2023/10/24 02:04:36;;;;;;;2.72;0.98;;;11.00;99.90;;;;;;5101550;28;20035;-78
2023/10/24 02:07:02;;;;;;;1.70;1.00;;;11.00;99.90;;;;;;5120169;28;20020;-78
2023/10/24 02:09:30;;;;;;;1.88;1.00;;;11.00;99.90;;;;;;5101751;28;20081;-78
2023/10/24 02:11:58;;;;;;;1.40;0.73;;;10.90;99.90;;;;;;5119547;28;20044;-79
2023/10/24 02:14:24;;;;;;;1.67;1.00;;;10.90;99.90;;;;;;5119999;28;20472;-78
2023/10/24 02:16:49;;;;;;;1.33;1.00;;;10.90;99.90;;;;;;5101711;28;20080;-80
2023/10/24 02:19:15;;;;;;;2.65;0.88;;;10.80;99.90;;;;;;5119573;28;20111;-80
2023/10/24 02:21:41;;;;;;;1.67;1.00;;;10.80;99.90;;;;;;5119679;28;20108;-80
2023/10/24 02:24:06;;;;;;;1.73;1.10;;;10.70;99.90;;;;;;5101390;28;20053;-80
2023/10/24 02:26:32;;;;;;;1.90;0.95;;;10.70;99.90;;;;;;5119851;28;20039;-79
2023/10/24 02:28:58;;;;;;;1.65;1.00;;;10.70;99.90;;;;;;5119687;28;20415;-78
2023/10/24 02:31:23;;;;;;;1.67;1.10;;;10.70;99.90;;;;;;5100786;28;20490;-77
2023/10/24 02:33:49;;;;;;;2.33;1.00;;;10.70;99.90;;;;;;5119296;28;20066;-78
2023/10/24 02:36:15;;;;;;;1.65;0.90;;;10.60;99.90;;;;;;5119724;28;20028;-77
2023/10/24 02:38:42;;;;;;;1.95;1.00;;;10.60;99.90;;;;;;5119478;28;20393;-77
2023/10/24 02:41:08;;;;;;;1.85;0.77;;;10.60;99.90;;;;;;5119291;28;20476;-77
2023/10/24 02:43:33;;;;;;;2.65;0.88;;;10.60;99.90;;;;;;5119356;28;20106;-77
2023/10/24 02:46:03;;;;;;;2.13;0.98;;;10.50;99.90;;;;;;5101094;28;20479;-76
2023/10/24 02:48:29;;;;;;;1.42;0.70;;;10.50;99.90;;;;;;5100741;28;20020;-76
2023/10/24 02:50:56;;;;;;;2.90;1.13;;;10.60;99.90;;;;;;5127702;27;20027;-76
2023/10/24 02:53:22;;;;;;;2.25;1.05;;;10.50;99.90;;;;;;5119142;28;20515;-77
2023/10/24 02:55:48;;;;;;;2.20;0.82;;;10.50;99.90;;;;;;5119181;28;20070;-76
2023/10/24 02:58:14;;;;;;;2.15;1.00;;;10.50;99.90;;;;;;5119207;28;20077;-77
2023/10/24 03:00:40;;;;;;;1.50;0.80;;;10.40;99.90;;;;;;5119048;28;20043;-77
2023/10/24 03:03:06;;;;;;;3.28;1.08;;;10.40;99.90;;;;;;5118916;28;20024;-77
2023/10/24 03:05:32;;;;;;;3.70;1.05;;;10.40;99.90;;;;;;5119096;28;20027;-77
2023/10/24 03:07:58;;;;;;;1.50;0.80;;;10.30;99.90;;;;;;5119076;28;20031;-77
2023/10/24 03:10:26;;;;;;;1.67;0.90;;;10.30;99.90;;;;;;5118740;28;20031;-77
2023/10/24 03:12:55;;;;;;;2.45;0.80;;;10.20;99.90;;;;;;5118870;28;20024;-77
2023/10/24 03:15:21;;;;;;;2.47;0.80;;;10.20;99.90;;;;;;5100460;28;20022;-77
2023/10/24 03:17:47;;;;;;;1.00;0.80;;;10.20;99.90;;;;;;5118672;28;20032;-77
2023/10/24 03:20:13;;;;;;;1.63;0.90;;;10.10;99.90;;;;;;5100640;28;20024;-77
2023/10/24 03:22:39;;;;;;;1.15;0.75;;;10.10;99.90;;;;;;5118726;28;20027;-77
2023/10/24 03:25:05;;;;;;;2.00;1.00;;;10.10;99.90;;;;;;5118594;28;20034;-77
2023/10/24 03:27:31;;;;;;;1.58;0.90;;;10.00;99.90;;;;;;5118734;28;20031;-79
2023/10/24 03:29:57;;;;;;;3.53;1.10;;;10.00;99.90;;;;;;5118487;28;20045;-79
2023/10/24 03:32:23;;;;;;;0.90;0.70;;;10.00;99.90;;;;;;5118717;28;20023;-79
2023/10/24 03:34:49;;;;;;;1.02;0.70;;;10.00;99.90;;;;;;5099905;28;20015;-78
2023/10/24 03:37:17;;;;;;;3.08;0.70;;;9.90;99.90;;;;;;5118615;28;20511;-79
2023/10/24 03:39:43;;;;;;;1.15;0.90;;;9.90;99.90;;;;;;5099979;28;20019;-79
2023/10/24 03:42:13;;;;;;;1.40;0.70;;;9.90;99.90;;;;;;5117616;28;20032;-79
2023/10/24 03:44:39;;;;;;;1.77;0.60;;;9.80;99.90;;;;;;5118090;28;20079;-79
2023/10/24 03:47:06;;;;;;;1.10;0.75;;;9.80;99.90;;;;;;5118460;28;20411;-78
2023/10/24 03:49:32;;;;;;;1.13;0.60;;;9.80;99.90;;;;;;5117900;28;20051;-77
2023/10/24 03:51:58;;;;;;;1.40;0.65;;;9.80;99.90;;;;;;5127688;27;20027;-77
2023/10/24 03:54:23;;;;;;;1.15;0.70;;;9.70;99.90;;;;;;5118017;28;20050;-77
2023/10/24 03:56:49;;;;;;;1.83;0.80;;;9.70;99.90;;;;;;5099883;28;20055;-77
2023/10/24 03:59:15;;;;;;;1.15;0.73;;;9.70;99.90;;;;;;5118027;28;20526;-77
2023/10/24 04:01:43;;;;;;;1.10;0.80;;;9.60;99.90;;;;;;5117843;28;20051;-77
2023/10/24 04:04:09;;;;;;;1.10;0.70;;;9.60;99.90;;;;;;5117853;28;20102;-77
2023/10/24 04:06:34;;;;;;;1.40;0.75;;;9.50;99.90;;;;;;5099843;28;20265;-78
2023/10/24 04:09:04;;;;;;;1.77;0.70;;;9.50;99.90;;;;;;5117753;28;20023;-78
2023/10/24 04:11:32;;;;;;;1.00;0.60;;;9.40;99.90;;;;;;5099816;28;20019;-78
2023/10/24 04:13:58;;;;;;;1.45;0.60;;;9.40;99.90;;;;;;5117818;28;20059;-77
2023/10/24 04:16:24;;;;;;;1.70;0.77;;;9.50;99.90;;;;;;5118117;28;20041;-78
2023/10/24 04:18:49;;;;;;;1.02;0.73;;;9.50;99.90;;;;;;5117655;28;20430;-77
2023/10/24 04:21:15;;;;;;;0.95;0.70;;;9.40;99.90;;;;;;5099866;28;20024;-78
2023/10/24 04:23:41;;;;;;;1.75;0.50;;;9.50;99.90;;;;;;5099411;28;20039;-78
2023/10/24 04:26:07;;;;;;;0.73;0.55;;;9.40;99.90;;;;;;5099408;28;20015;-78
2023/10/24 04:28:33;;;;;;;1.60;0.60;;;9.40;99.90;;;;;;5117743;28;20507;-78
2023/10/24 04:30:59;;;;;;;1.13;0.73;;;9.40;99.90;;;;;;5117929;28;20024;-78
2023/10/24 04:33:25;;;;;;;0.80;0.50;;;9.30;99.90;;;;;;5117283;28;20410;-81
2023/10/24 04:35:51;;;;;;;0.73;0.57;;;9.30;99.90;;;;;;5117790;28;20068;-80
2023/10/24 04:38:17;;;;;;;1.58;0.80;;;9.20;99.90;;;;;;5117495;28;20012;-80
2023/10/24 04:40:43;;;;;;;1.30;0.60;;;9.20;99.90;;;;;;5117667;28;20168;-80
2023/10/24 04:43:09;;;;;;;1.63;0.70;;;9.20;99.90;;;;;;5117508;28;20089;-79
2023/10/24 04:45:36;;;;;;;1.15;0.60;;;9.20;99.90;;;;;;5117818;28;20039;-78
2023/10/24 04:48:03;;;;;;;1.15;0.77;;;9.10;99.90;;;;;;5098918;28;20024;-78
2023/10/24 04:50:29;;;;;;;1.33;0.70;;;9.10;99.90;;;;;;5104151;28;20011;-78
2023/10/24 04:52:55;;;;;;;1.38;0.80;;;9.10;99.90;;;;;;5103658;28;20023;-78
2023/10/24 04:55:21;;;;;;;1.17;0.73;;;9.10;99.90;;;;;;5120606;28;20107;-78
2023/10/24 04:57:47;;;;;;;1.48;0.70;;;9.10;99.90;;;;;;5121470;28;20024;-78
2023/10/24 05:00:13;;;;;;;1.00;0.60;;;9.10;99.90;;;;;;5121463;28;20042;-77
2023/10/24 05:02:42;;;;;;;1.73;0.63;;;9.00;99.90;;;;;;5103004;28;20053;-77
2023/10/24 05:05:09;;;;;;;1.40;0.60;;;9.00;99.90;;;;;;5121654;28;20103;-77
2023/10/24 05:07:35;;;;;;;0.77;0.57;;;9.10;99.90;;;;;;5102862;28;20039;-77
2023/10/24 05:10:00;;;;;;;1.40;0.50;;;9.00;99.90;;;;;;5102951;28;20023;-76
2023/10/24 05:12:27;;;;;;;1.00;0.60;;;9.00;99.90;;;;;;5121212;28;20391;-77
2023/10/24 05:14:53;;;;;;;0.73;0.50;;;8.90;99.90;;;;;;5121274;28;20095;-77
2023/10/24 05:17:18;;;;;;;0.50;0.40;;;9.00;99.90;;;;;;5102727;28;20077;-77
2023/10/24 05:19:44;;;;;;;1.00;0.50;;;9.00;99.90;;;;;;5121089;28;20016;-77
2023/10/24 05:22:10;;;;;;;0.77;0.60;;;8.90;99.90;;;;;;5121014;28;20028;-76
2023/10/24 05:24:37;;;;;;;1.05;0.55;;;8.90;99.90;;;;;;5121206;28;20107;-75
2023/10/24 05:27:03;;;;;;;1.13;0.60;;;8.90;99.90;;;;;;5120796;28;20020;-77
2023/10/24 05:29:31;;;;;;;0.95;0.50;;;8.90;99.90;;;;;;5121048;28;20020;-78
2023/10/24 05:31:56;;;;;;;1.10;0.70;;;8.90;99.90;;;;;;5120668;28;20095;-78
2023/10/24 05:34:22;;;;;;;0.90;0.60;;;9.00;99.90;;;;;;5120753;28;20051;-78
2023/10/24 05:36:49;;;;;;;0.80;0.60;;;8.90;99.90;;;;;;5120475;28;20049;-78
2023/10/24 05:39:15;;;;;;;1.50;0.75;;;8.90;99.90;;;;;;5102405;28;20020;-78
2023/10/24 05:41:41;;;;;;;0.93;0.60;;;8.80;99.90;;;;;;5120259;28;20073;-77
2023/10/24 05:44:07;;;;;;;1.08;0.70;;;8.80;99.90;;;;;;5120706;28;20028;-79
2023/10/24 05:46:32;;;;;;;1.20;0.70;;;8.80;99.90;;;;;;5120548;28;20020;-79
2023/10/24 05:48:58;;;;;;;0.80;0.60;;;8.80;99.90;;;;;;5120313;28;20016;-79
2023/10/24 05:51:27;;;;;;;1.05;0.77;;;8.70;99.90;;;;;;5130123;27;20111;-80
2023/10/24 05:53:53;;;;;;;1.40;0.80;;;8.70;99.90;;;;;;5120303;28;20016;-79
2023/10/24 05:56:19;;;;;;;1.00;0.70;;;8.70;99.90;;;;;;5119852;28;20051;-79
2023/10/24 05:58:45;;;;;;;1.00;0.63;;;8.70;99.90;;;;;;5102082;28;20501;-79
2023/10/24 06:01:10;;;;;;;2.33;1.00;;;8.70;99.90;;;;;;5120168;28;20044;-79
2023/10/24 06:03:36;;;;;;;2.15;1.38;;;8.70;99.90;;;;;;5101544;28;20666;-78
2023/10/24 06:06:03;;;;;;;1.70;1.02;;;8.70;99.90;;;;;;5101144;28;20051;-77
2023/10/24 06:08:29;;;;;;;2.53;1.00;;;8.80;99.90;;;;;;5120168;28;20533;-78
2023/10/24 06:10:59;;;;;;;1.52;1.00;;;;;;;;;;5119903;28;20028;-78
2023/10/24 06:13:25;;;;;;;2.03;1.05;;;8.80;99.90;;;;;;5120079;28;20396;-78
2023/10/24 06:15:50;;;;;;;1.25;0.93;;;8.80;99.90;;;;;;5119844;28;20015;-80
2023/10/24 06:18:17;;;;;;;1.80;1.15;;;8.80;99.90;;;;;;5119856;28;20394;-79
2023/10/24 06:20:43;;;;;;;1.65;1.02;;;8.70;99.90;;;;;;5119951;28;20019;-78
2023/10/24 06:23:10;;;;;;;2.97;1.20;;;8.70;99.90;;;;;;5119453;28;20514;-77
2023/10/24 06:25:41;;;;;;;2.20;1.20;;;8.70;99.90;;;;;;5102342;28;20059;-77
2023/10/24 06:28:08;;;;;;;1.60;1.23;;;8.70;99.90;;;;;;5119653;28;20020;-78
2023/10/24 06:30:34;;;;;;;2.30;1.50;;;8.70;99.90;;;;;;5119089;28;20020;-78
2023/10/24 06:33:01;;;;;;;3.08;1.70;;;8.70;99.90;;;;;;5119330;28;20038;-77
2023/10/24 06:35:26;;;;;;;2.58;1.83;;;8.60;99.90;;;;;;5110705;28;20038;-77
2023/10/24 06:37:52;;;;;;;3.30;2.03;;;8.60;99.90;;;;;;5100130;28;20051;-79
2023/10/24 06:40:18;;;;;;;3.53;2.20;;;8.70;99.90;;;;;;5100827;28;20031;-78
2023/10/24 06:42:46;;;;;;;2.67;2.00;;;8.60;99.90;;;;;;5118238;28;20024;-78
2023/10/24 06:45:12;;;;;;;2.70;1.77;;;8.60;99.90;;;;;;5104421;28;20033;-76
2023/10/24 06:47:38;;;;;;;3.92;1.90;;;8.70;99.90;;;;;;5109208;28;20490;-78
2023/10/24 06:50:05;;;;;;;3.72;2.25;;;8.70;99.90;;;;;;5102012;27;20024;-80
2023/10/24 06:52:31;;;;;;;3.58;2.17;;;8.70;99.90;;;;;;5120423;27;20023;-81
2023/10/24 06:54:57;;;;;;;3.17;2.20;;;8.80;99.90;;;;;;5117924;28;20109;-81
2023/10/24 06:57:23;;;;;;;3.92;2.47;;;8.80;99.90;;;;;;5118974;28;20024;-78
2023/10/24 06:59:48;;;;;;;5.28;2.70;;;8.80;99.90;;;;;;5101505;28;20857;-77
2023/10/24 07:02:14;;;;;;;4.68;2.88;;;8.80;99.90;;;;;;5119082;28;20063;-78
2023/10/24 07:04:40;;;;;;;4.28;2.55;;;8.80;99.90;;;;;;5118815;28;20034;-76
2023/10/24 07:07:05;;;;;;;4.05;2.67;;;8.90;99.90;;;;;;5118998;28;20471;-77
2023/10/24 07:09:31;;;;;;;4.80;2.85;;;8.80;99.90;;;;;;5118497;28;20062;-77
2023/10/24 07:11:57;;;;;;;3.92;2.70;;;8.90;99.90;;;;;;5118750;28;20028;-78
2023/10/24 07:14:23;;;;;;;5.35;3.20;;;8.90;99.90;;;;;;5118476;28;20464;-79
2023/10/24 07:16:51;;;;;;;5.18;3.30;;;8.90;99.90;;;;;;5116663;28;20024;-78
2023/10/24 07:19:17;;;;;;;5.20;3.13;;;9.00;99.90;;;;;;5117042;28;20054;-78
2023/10/24 07:21:43;;;;;;;4.93;3.20;;;9.00;99.90;;;;;;5118640;28;20020;-79
2023/10/24 07:24:09;;;;;;;3.97;2.78;;;9.10;99.90;;;;;;5116238;28;20042;-78
2023/10/24 07:26:34;;;;;;;4.32;2.75;;;9.10;99.90;;;;;;5118447;28;20012;-77
2023/10/24 07:29:00;;;;;;;5.25;3.35;;;9.10;99.90;;;;;;5117047;28;20214;-77
2023/10/24 07:31:26;;;;;;;5.47;3.10;;;9.20;99.90;;;;;;5118618;28;20510;-77
2023/10/24 07:33:52;;;;;;;5.43;3.17;;;9.20;99.90;;;;;;5118037;28;20059;-77
2023/10/24 07:36:17;;;;;;;4.43;3.03;;;9.30;99.90;;;;;;5117018;28;20016;-78
2023/10/24 07:38:43;;;;;;;5.07;3.35;;;9.30;99.90;;;;;;5118186;28;20024;-80
2023/10/24 07:41:09;;;;;;;4.85;3.40;;;9.40;99.90;;;;;;5118218;28;20395;-79
2023/10/24 07:43:35;;;;;;;4.70;3.13;;;9.50;99.90;;;;;;5118088;28;20059;-80
2023/10/24 07:46:00;;;;;;;4.00;3.05;;;9.60;99.90;;;;;;5118374;28;20023;-79
2023/10/24 07:48:26;;;;;;;4.85;3.00;;;9.60;99.90;;;;;;5112376;28;20034;-79
2023/10/24 07:51:02;;;;;;;5.80;3.00;;;9.70;99.90;;;;;;5126529;27;20046;-78
2023/10/24 07:53:28;;;;;;;5.35;3.00;;;9.70;99.90;;;;;;5118294;28;20361;-77
2023/10/24 07:55:53;;;;;;;4.25;2.97;;;9.80;99.90;;;;;;5118492;28;20022;-77
2023/10/24 07:58:19;;;;;;;4.57;2.92;;;9.80;99.90;;;;;;5118068;28;20102;-79
2023/10/24 08:00:46;;;;;;;5.05;2.42;;;9.90;99.90;;;;;;5117915;28;20043;-78
2023/10/24 08:03:13;;;;;;;4.22;2.42;;;10.00;99.90;;;;;;5099464;28;20028;-78
2023/10/24 08:05:38;;;;;;;3.85;2.20;;;10.10;99.90;;;;;;5118047;28;20065;-78
2023/10/24 08:08:05;;;;;;;3.45;2.00;;;10.20;99.90;;;;;;5117870;28;20019;-77
2023/10/24 08:10:32;;;;;;;3.70;1.90;;;10.20;99.90;;;;;;5117912;28;20518;-77
2023/10/24 08:13:01;;;;;;;2.83;1.73;;;10.30;99.90;;;;;;5117734;28;20031;-78
2023/10/24 08:15:27;;;;;;;2.33;1.67;;;10.30;99.90;;;;;;5117980;28;20416;-77
2023/10/24 08:17:53;;;;;;;2.47;1.50;;;10.40;99.90;;;;;;5099467;28;20028;-77
2023/10/24 08:20:20;;;;;;;1.88;1.30;;;10.50;99.90;;;;;;5117939;28;20384;-77
2023/10/24 08:22:46;;;;;;;3.85;1.60;;;10.50;99.90;;;;;;5117852;28;20032;-78
2023/10/24 08:25:12;;;;;;;3.88;1.40;;;10.60;99.90;;;;;;5117741;28;20026;-75
2023/10/24 08:27:37;;;;;;;3.05;1.30;;;10.60;99.90;;;;;;5117866;28;20032;-77
2023/10/24 08:30:04;;;;;;;2.03;1.08;;;10.70;99.90;;;;;;5117174;28;20019;-77
2023/10/24 08:32:29;;;;;;;3.42;1.02;;;10.70;99.90;;;;;;5099260;28;20051;-77
2023/10/24 08:34:55;;;;;;;1.80;0.90;;;10.80;99.90;;;;;;5117418;28;20031;-78
2023/10/24 08:37:21;;;;;;;2.03;0.93;;;10.90;99.90;;;;;;5099512;28;20030;-76
2023/10/24 08:39:48;;;;;;;1.85;0.90;;;11.00;99.90;;;;;;5098998;28;20016;-77
2023/10/24 08:42:14;;;;;;;2.15;0.80;;;11.00;99.90;;;;;;5117462;28;20020;-76
2023/10/24 08:44:41;;;;;;;1.67;0.75;;;11.10;99.90;;;;;;5099223;28;20488;-70
2023/10/24 08:47:09;;;;;;;3.30;0.70;;;11.20;99.90;;;;;;5117726;28;20029;-72
2023/10/24 08:49:38;;;;;;;1.13;0.65;;;11.20;99.90;;;;;;5117200;28;20486;-68
2023/10/24 08:52:04;;;;;;;3.30;0.82;;;11.30;99.90;;;;;;5127178;28;20057;-68
2023/10/24 08:54:30;;;;;;;1.50;0.88;;;11.30;99.90;;;;;;5117401;28;20012;-68
2023/10/24 08:56:57;;;;;;;2.40;0.60;;;11.30;99.90;;;;;;5117465;28;20067;-68
2023/10/24 08:59:28;;;;;;;2.42;0.77;;;11.40;99.90;;;;;;5117447;28;20054;-69
2023/10/24 09:01:54;;;;;;;1.17;0.57;;;11.50;99.90;;;;;;5098972;28;20051;-68
2023/10/24 09:04:19;;;;;;;1.75;0.70;;;11.60;99.90;;;;;;5116381;28;20399;-67
2023/10/24 09:06:46;;;;;;;1.65;0.50;;;11.70;99.90;;;;;;5116856;28;20024;-68
2023/10/24 09:09:13;;;;;;;2.85;0.70;;;11.70;99.90;;;;;;5116819;28;20018;-68
2023/10/24 09:11:57;;;;;;;1.40;0.60;;;11.80;99.90;;;;;;5117156;28;20027;-70
2023/10/24 09:14:30;;;;;;;1.05;0.50;;;11.80;99.90;;;;;;5115808;28;20028;-68
2023/10/24 09:17:00;;;;;;;1.15;0.50;;;11.90;99.90;;;;;;5114402;28;20039;-69
2023/10/24 09:19:27;;;;;;;2.22;0.70;;;12.00;99.90;;;;;;5117210;28;20042;-68
2023/10/24 09:21:56;;;;;;;2.88;0.68;;;12.00;99.90;;;;;;5115830;28;20041;-68
2023/10/24 09:24:22;;;;;;;1.20;0.60;;;12.10;99.90;;;;;;5117323;28;20027;-69
2023/10/24 09:26:56;;;;;;;2.22;0.60;;;12.10;99.90;;;;;;5117059;28;20091;-69
2023/10/24 09:29:24;;;;;;;;;;;12.10;99.90;;;;;;5116336;28;20031;-68
2023/10/24 09:31:51;;;;;;;2.58;0.50;;;12.20;99.90;;;;;;5117214;28;19996;-69
2023/10/24 09:34:18;;;;;;;1.45;0.57;;;12.20;99.90;;;;;;5116909;28;20040;-72
2023/10/24 09:36:44;;;;;;;1.27;0.50;;;12.30;99.90;;;;;;5124255;28;20019;-71
2023/10/24 09:39:14;;;;;;;1.30;0.50;;;12.30;99.90;;;;;;5113654;28;20038;-72
2023/10/24 09:41:43;;;;;;;1.98;0.63;;;12.40;99.90;;;;;;5112702;28;20042;-72
2023/10/24 09:44:10;;;;;;;2.72;0.50;;;12.50;99.90;;;;;;5116111;27;20028;-72
2023/10/24 09:46:37;;;;;;;2.40;0.60;;;12.50;99.90;;;;;;5108170;28;20019;-72
2023/10/24 09:49:05;;;;;;;2.42;0.82;;;12.50;99.90;;;;;;5120170;28;20036;-72
2023/10/24 09:51:37;;;;;;;1.27;0.55;;;12.60;99.90;;;;;;5130059;27;20422;-72
2023/10/24 09:54:07;;;;;;;4.53;1.00;;;12.70;99.90;;;;;;5129419;27;20023;-72
2023/10/24 09:56:33;;;;;;;1.75;0.77;;;12.80;99.90;;;;;;5101801;28;20051;-73
2023/10/24 09:58:59;;;;;;;4.88;0.80;;;12.80;99.90;;;;;;5120086;28;20031;-73
2023/10/24 10:01:27;;;;;;;1.65;0.70;;;12.90;99.90;;;;;;5113269;28;20032;-72
2023/10/24 10:04:00;;;;;;;2.97;0.70;;;13.00;99.90;;;;;;5119752;28;20038;-73
2023/10/24 10:06:27;;;;;;;1.65;0.70;;;13.10;99.90;;;;;;5118602;28;20045;-73
2023/10/24 10:08:56;;;;;;;3.65;0.77;;;13.10;99.90;;;;;;5122487;27;20110;-72
2023/10/24 10:11:25;;;;;;;1.48;0.73;;;13.20;99.90;;;;;;5106485;28;20028;-73
2023/10/24 10:14:07;;;;;;;3.22;0.70;;;13.30;99.90;;;;;;5119869;28;20106;-72
2023/10/24 10:16:45;;;;;;;2.55;0.93;;;13.40;99.90;;;;;;5119689;28;20019;-73
2023/10/24 10:19:26;;;;;;;4.45;0.70;;;13.50;99.90;;;;;;5089568;28;20024;-72
2023/10/24 10:22:20;;;;;;;2.22;0.63;;;13.60;99.90;;;;;;5119927;28;20069;-70
2023/10/24 10:24:58;;;;;;;3.90;1.00;;;13.60;99.90;;;;;;5118149;28;20024;-71
2023/10/24 10:27:35;;;;;;;4.03;0.90;;;13.70;99.90;;;;;;5118297;28;20026;-73
2023/10/24 10:30:14;;;;;;;1.67;0.70;;;13.80;99.90;;;;;;5119482;28;20026;-73
2023/10/24 10:32:52;;;;;;;2.47;0.80;;;13.90;99.90;;;;;;5121506;27;20027;-74
2023/10/24 10:35:19;;;;;;;2.65;0.95;;;14.00;99.90;;;;;;5123180;27;20422;-74
2023/10/24 10:38:04;;;;;;;1.52;0.70;;;14.10;99.90;;;;;;5132714;27;20023;-73
2023/10/24 10:40:30;;;;;;;2.33;1.10;;;14.10;99.90;;;;;;5122124;27;20058;-74
2023/10/24 10:42:56;;;;;;;3.40;1.60;;;14.20;99.90;;;;;;5100136;27;20059;-74
2023/10/24 10:45:23;;;;;;;3.75;1.40;;;14.30;99.90;;;;;;5106968;27;20020;-74
2023/10/24 10:47:49;;;;;;;3.83;1.50;;;14.30;99.90;;;;;;5115531;27;20496;-73
2023/10/24 10:50:22;;;;;;;3.28;1.50;;;14.50;99.90;;;;;;5120861;27;20036;-73
2023/10/24 10:52:51;;;;;;;4.05;1.05;;;14.60;99.90;;;;;;5112662;28;20392;-72
2023/10/24 10:55:54;;;;;;;4.63;1.00;;;14.70;99.90;;;;;;5118219;28;20019;-72
2023/10/24 10:58:23;;;;;;;3.50;0.97;;;14.80;99.90;;;;;;5106839;27;20020;-72
2023/10/24 11:01:00;;;;;;;3.88;1.10;;;14.80;99.90;;;;;;5104801;27;20108;-72
2023/10/24 11:03:38;;;;;;;3.00;1.05;;;14.90;99.90;;;;;;5120384;27;20022;-73
2023/10/24 11:06:14;;;;;;;3.22;0.90;;;14.90;99.90;;;;;;5121562;27;20020;-73
2023/10/24 11:08:43;;;;;;;2.20;0.90;;;14.90;99.90;;;;;;5100253;28;20020;-73
2023/10/24 11:11:10;;;;;;;1.80;0.80;;;15.00;99.90;;;;;;5117867;27;20019;-72
2023/10/24 11:13:42;;;;;;;1.58;0.70;;;15.00;99.90;;;;;;5115522;27;20051;-71
2023/10/24 11:16:10;;;;;;;1.40;0.60;;;15.00;99.90;;;;;;5110690;27;20168;-71
2023/10/24 11:18:38;;;;;;;1.88;0.60;;;15.00;99.90;;;;;;5096490;28;20031;-74
2023/10/24 11:21:07;;;;;;;2.95;0.60;;;15.00;99.90;;;;;;5117161;27;20040;-71
2023/10/24 11:23:33;;;;;;;2.00;0.73;;;15.00;99.90;;;;;;5099915;28;20024;-72
2023/10/24 11:26:00;;;;;;;2.55;0.63;;;15.10;99.90;;;;;;5109350;28;20028;-74
2023/10/24 11:28:27;;;;;;;1.73;0.60;;;15.00;99.90;;;;;;5099990;28;20039;-74
2023/10/24 11:30:54;;;;;;;2.30;0.60;;;15.00;99.90;;;;;;5118509;28;20448;-74
2023/10/24 11:33:20;;;;;;;1.67;0.60;;;15.00;99.90;;;;;;5099184;28;20048;-74
2023/10/24 11:35:46;;;;;;;2.03;0.70;;;15.00;99.90;;;;;;5116211;28;20446;-72
2023/10/24 11:38:14;;;;;;;2.38;0.60;;;15.10;99.90;;;;;;5097607;28;20027;-72
2023/10/24 11:40:40;;;;;;;4.05;1.02;;;15.20;99.90;;;;;;5099342;28;20019;-72
2023/10/24 11:43:07;;;;;;;1.20;0.60;;;15.20;99.90;;;;;;5117376;27;20019;-72
2023/10/24 11:45:37;;;;;;;2.70;0.52;;;15.30;99.90;;;;;;5129284;27;20020;-73
2023/10/24 11:48:03;;;;;;;2.35;0.73;;;15.40;99.90;;;;;;5117735;28;20016;-73
2023/10/24 11:50:45;;;;;;;1.77;0.60;;;15.60;99.90;;;;;;5122779;27;20363;-74
2023/10/24 11:53:18;;;;;;;2.22;0.60;;;15.70;99.90;;;;;;5119683;27;20028;-68
2023/10/24 11:55:44;;;;;;;;;;;15.60;99.90;;;;;;5116163;28;20055;-69
2023/10/24 11:58:11;;;;;;;1.52;0.70;;;15.70;99.90;;;;;;5117427;28;20517;-68
2023/10/24 12:00:40;;;;;;;0.68;0.50;;;15.70;99.90;;;;;;5099548;28;20039;-68
2023/10/24 12:03:06;;;;;;;2.25;0.57;;;15.60;99.90;;;;;;5117298;28;20395;-69
2023/10/24 12:05:32;;;;;;;1.98;0.50;;;15.60;99.90;;;;;;5117794;28;20499;-68
2023/10/24 12:07:59;;;;;;;1.60;0.50;;;15.70;99.90;;;;;;5103480;28;21298;-69
2023/10/24 12:10:27;;;;;;;2.40;0.50;;;15.80;99.90;;;;;;5117633;28;20026;-68
2023/10/24 12:12:57;;;;;;;1.67;0.45;;;16.00;99.90;;;;;;5117900;28;20024;-68
2023/10/24 12:15:27;;;;;;;1.45;0.50;;;16.00;99.90;;;;;;5099478;28;20106;-68
2023/10/24 12:17:53;;;;;;;1.38;0.60;;;16.00;99.90;;;;;;5117579;28;20008;-68
2023/10/24 12:20:22;;;;;;;1.83;0.50;;;16.00;99.90;;;;;;5117631;28;20030;-69
2023/10/24 12:22:48;;;;;;;2.88;0.68;;;16.00;99.90;;;;;;5117632;28;20023;-68
2023/10/24 12:25:16;;;;;;;1.20;0.40;;;15.90;99.90;;;;;;5118178;28;20495;-69
2023/10/24 12:27:41;;;;;;;2.42;0.70;;;15.90;99.90;;;;;;5121539;28;20483;-68
2023/10/24 12:30:08;;;;;;;1.25;0.57;;;16.00;99.90;;;;;;5094174;28;20015;-68
2023/10/24 12:32:33;;;;;;;2.67;0.70;;;16.10;99.90;;;;;;5098667;28;20027;-68
2023/10/24 12:34:59;;;;;;;2.13;0.55;;;16.10;99.90;;;;;;5117592;28;20024;-69
2023/10/24 12:37:25;;;;;;;3.17;0.75;;;16.20;99.90;;;;;;5099443;28;20108;-69
2023/10/24 12:39:53;;;;;;;0.93;0.50;;;16.30;99.90;;;;;;5098885;28;20044;-69
2023/10/24 12:42:19;;;;;;;3.60;0.90;;;16.30;99.90;;;;;;5117559;28;20118;-69
2023/10/24 12:44:44;;;;;;;2.92;0.98;;;16.30;99.90;;;;;;5117501;28;20054;-69
2023/10/24 12:47:11;;;;;;;2.00;0.90;;;16.30;99.90;;;;;;5117688;28;20031;-69
2023/10/24 12:49:37;;;;;;;2.10;0.60;;;16.20;99.90;;;;;;5117307;28;20055;-69